This is the latest recevied weather packets stored in our database for station/object OK1HOL-13. If no packets are shown the sender has not sent any weather packets the latest 10 day(s).
| Time | Temp. | Humidity | Pressure | Rain* | Wind** | Luminosity | Snow |
|---|---|---|---|---|---|---|---|
| 1777715151 | 23.33° C | 23% | 1023.7 hPa | - | - | 431 W/m² | - |
| 1777714551 | 23.89° C | 23% | 1023.9 hPa | - | - | 431 W/m² | - |
| 1777713951 | 23.33° C | 24% | 1024 hPa | - | - | 431 W/m² | - |
| 1777713351 | 22.22° C | 27% | 1024.1 hPa | - | - | 431 W/m² | - |
| 1777712751 | 22.78° C | 26% | 1024.2 hPa | - | - | 431 W/m² | - |
| 1777712151 | 23.33° C | 27% | 1024.3 hPa | - | - | 431 W/m² | - |
| 1777710951 | 21.67° C | 31% | 1024.6 hPa | - | - | 431 W/m² | - |
| 1777710351 | 22.22° C | 30% | 1024.6 hPa | - | - | 431 W/m² | - |
| 1777709751 | 21.67° C | 31% | 1024.7 hPa | - | - | 410 W/m² | - |
| 1777709151 | 20° C | 34% | 1024.9 hPa | - | - | 393 W/m² | - |
| 1777708551 | 18.33° C | 37% | 1025 hPa | - | - | 367 W/m² | - |
| 1777707951 | 18.33° C | 37% | 1025.1 hPa | - | - | 367 W/m² | - |
| 1777707351 | 17.22° C | 39% | 1025.2 hPa | - | - | 323 W/m² | - |
| 1777706751 | 17.78° C | 38% | 1025.2 hPa | - | - | 301 W/m² | - |
| 1777706151 | 16.11° C | 41% | 1025.3 hPa | - | - | 286 W/m² | - |
| 1777705551 | 16.67° C | 40% | 1025.4 hPa | - | - | 278 W/m² | - |
| 1777704951 | 15° C | 44% | 1025.5 hPa | - | - | 234 W/m² | - |
| 1777704351 | 14.44° C | 46% | 1025.6 hPa | - | - | 174 W/m² | - |
| 1777703751 | 13.33° C | 49% | 1025.6 hPa | - | - | 167 W/m² | - |
| 1777703151 | 12.78° C | 51% | 1025.6 hPa | - | - | 172 W/m² | - |
| 1777702551 | 12.78° C | 51% | 1025.7 hPa | - | - | 142 W/m² | - |
| 1777701951 | 11.11° C | 55% | 1025.8 hPa | - | - | 136 W/m² | - |
| 1777701351 | 10.56° C | 58% | 1025.8 hPa | - | - | 24 W/m² | - |
| 1777700151 | 9.44° C | 61% | 1025.7 hPa | - | - | 21 W/m² | - |
| 1777699551 | 8.89° C | 62% | 1025.8 hPa | - | - | 19 W/m² | - |
* Rain since midnight (hover to see other rain measurements)
** Current wind speed in m/s (hover to see current wind gust speed)